Time;durP1;ratioP1;P1;durP2;ratioP2;P2;SDS_P1;SDS_P2;PMS_P1;PMS_P2;Temp;Humidity;BMP_temperature;BMP_pressure;BME280_temperature;BME280_humidity;BME280_pressure;Samples;Min_cycle;Max_cycle;Signal;HPM_P1;HPM_P2
2022/06/07 00:00:00;;;;;;;;;;;;;;;;;;5082966;28;19912;-74
2022/06/07 00:02:47;;;;;;;;;;;;;;;;;;5085705;28;19920;-74
2022/06/07 00:05:34;;;;;;;;;;;;;;;;;;5088733;28;20307;-73
2022/06/07 00:08:20;;;;;;;;;;;;;;;;;;5089440;28;20303;-73
2022/06/07 00:11:07;;;;;;;;;;;;;;;;;;5080664;28;20292;-73
2022/06/07 00:13:53;;;;;;;;;;;;;;;;;;5084514;28;19915;-74
2022/06/07 00:16:40;;;;;;;;;;;;;;;;;;5084353;28;20379;-74
2022/06/07 00:19:26;;;;;;;;;;;;;;;;;;5088105;28;19912;-74
2022/06/07 00:22:13;;;;;;;;;;;;;;;;;;5080799;28;20277;-74
2022/06/07 00:24:59;;;;;;;;;;;;;;;;;;5074588;28;19909;-75
2022/06/07 00:27:46;;;;;;;;;;;;;;;;;;5078369;28;19924;-74
2022/06/07 00:30:32;;;;;;;;;;;;;;;;;;5078655;28;19912;-73
2022/06/07 00:33:19;;;;;;;;;;;;;;;;;;5064742;28;19920;-75
2022/06/07 00:36:05;;;;;;;;;;;;;;;;;;5080022;28;19931;-73
2022/06/07 00:38:52;;;;;;;;;;;;;;;;;;5087162;28;19912;-74
2022/06/07 00:41:41;;;;;;;;;;;;;;;;;;5090986;28;19912;-75
2022/06/07 00:44:27;;;;;;;;;;;;;;;;;;5081191;28;20303;-74
2022/06/07 00:47:14;;;;;;;;;;;;;;;;;;5083401;28;19928;-74
2022/06/07 00:50:00;;;;;;;;;;;;;;;;;;5089687;28;19912;-74
2022/06/07 00:52:46;;;;;;;;;;;;;;;;;;5085143;28;19935;-74
2022/06/07 00:55:33;;;;;;;;;;;;;;;;;;5069985;28;19919;-74
2022/06/07 00:58:19;;;;;;;;;;;;;;;;;;5088105;28;19918;-73
2022/06/07 01:01:06;;;;;;;;;;;;;;;;;;5080701;28;19931;-74
2022/06/07 01:03:52;;;;;;;;;;;;;;;;;;5075418;28;19909;-74
2022/06/07 01:12:49;;;;;;;;;;;;;;;;;;5082325;28;19919;-74
2022/06/07 01:15:35;;;;;;;;;;;;;;;;;;5071978;28;19916;-74
2022/06/07 01:18:22;;;;;;;;;;;;;;;;;;5074468;28;19935;-73
2022/06/07 01:21:08;;;;;;;;;;;;;;;;;;5076482;28;19912;-74
2022/06/07 01:23:55;;;;;;;;;;;;;;;;;;5074507;28;20292;-73
2022/06/07 01:26:41;;;;;;;;;;;;;;;;;;5082292;28;19928;-73
2022/06/07 01:29:28;;;;;;;;;;;;;;;;;;5079274;28;19940;-73
2022/06/07 01:32:14;;;;;;;;;;;;;;;;;;5074322;28;19919;-73
2022/06/07 01:35:01;;;;;;;;;;;;;;;;;;5089066;28;20375;-73
2022/06/07 01:37:47;;;;;;;;;;;;;;;;;;5075246;28;19931;-73
2022/06/07 01:43:39;;;;;;;;;;;;;;;;;;5078540;28;19919;-73
2022/06/07 01:46:25;;;;;;;;;;;;;;;;;;5072246;28;19921;-74
2022/06/07 01:49:12;;;;;;;;;;;;;;;;;;5079821;28;19917;-74
2022/06/07 01:51:59;;;;;;;;;;;;;;;;;;5071668;28;19919;-73
2022/06/07 01:54:45;;;;;;;;;;;;;;;;;;5067443;28;20275;-73
2022/06/07 01:57:32;;;;;;;;;;;;;;;;;;5068383;28;19920;-74
2022/06/07 02:00:18;;;;;;;;;;;;;;;;;;5078377;28;19923;-73
2022/06/07 02:03:05;;;;;;;;;;;;;;;;;;5073007;28;19916;-73
2022/06/07 02:05:52;;;;;;;;;;;;;;;;;;5070707;28;20434;-74
2022/06/07 02:08:40;;;;;;;;;;;;;;;;;;5077478;28;19917;-73
2022/06/07 02:11:27;;;;;;;;;;;;;;;;;;5075762;28;19913;-73
2022/06/07 02:14:13;;;;;;;;;;;;;;;;;;5074490;28;20377;-73
2022/06/07 02:17:00;;;;;;;;;;;;;;;;;;5080142;28;19919;-75
2022/06/07 02:19:46;;;;;;;;;;;;;;;;;;5066283;28;19997;-74
2022/06/07 02:22:33;;;;;;;;;;;;;;;;;;5072705;28;19912;-73
2022/06/07 02:25:19;;;;;;;;;;;;;;;;;;5076102;28;19919;-73
2022/06/07 02:28:06;;;;;;;;;;;;;;;;;;5077587;28;19957;-74
2022/06/07 02:30:52;;;;;;;;;;;;;;;;;;5069667;28;20669;-73
2022/06/07 02:33:38;;;;;;;;;;;;;;;;;;5073745;28;19908;-73
2022/06/07 02:36:25;;;;;;;;;;;;;;;;;;5070687;28;19930;-74
2022/06/07 02:39:11;;;;;;;;;;;;;;;;;;5073593;28;20314;-73
2022/06/07 02:41:58;;;;;;;;;;;;;;;;;;5070732;28;19913;-72
2022/06/07 02:44:45;;;;;;;;;;;;;;;;;;5082501;28;19912;-73
2022/06/07 02:47:31;;;;;;;;;;;;;;;;;;5072224;28;19928;-73
2022/06/07 02:50:18;;;;;;;;;;;;;;;;;;5071517;28;20364;-72
2022/06/07 02:53:04;;;;;;;;;;;;;;;;;;5076359;28;19919;-73
2022/06/07 02:55:51;;;;;;;;;;;;;;;;;;5076327;28;20391;-72
2022/06/07 02:58:37;;;;;;;;;;;;;;;;;;5084015;28;19923;-72
2022/06/07 03:01:24;;;;;;;;;;;;;;;;;;5074061;28;20233;-73
2022/06/07 03:04:10;;;;;;;;;;;;;;;;;;5080634;28;19915;-72
2022/06/07 03:06:57;;;;;;;;;;;;;;;;;;5077518;28;19928;-73
2022/06/07 03:09:43;;;;;;;;;;;;;;;;;;5091154;28;19919;-73
2022/06/07 03:12:29;;;;;;;;;;;;;;;;;;5074573;28;19923;-73
2022/06/07 03:15:16;;;;;;;;;;;;;;;;;;5075293;28;19913;-75
2022/06/07 03:18:03;;;;;;;;;;;;;;;;;;5071667;28;20596;-74
2022/06/07 03:20:50;;;;;;;;;;;;;;;;;;5066084;28;19923;-73
2022/06/07 03:23:36;;;;;;;;;;;;;;;;;;5080540;28;20368;-74
2022/06/07 03:26:23;;;;;;;;;;;;;;;;;;5077346;28;19920;-75
2022/06/07 03:29:10;;;;;;;;;;;;;;;;;;5066608;28;19961;-74
2022/06/07 03:31:56;;;;;;;;;;;;;;;;;;5077642;28;19923;-74
2022/06/07 03:34:43;;;;;;;;;;;;;;;;;;5079788;28;19922;-74
2022/06/07 03:37:29;;;;;;;;;;;;;;;;;;5084044;28;19920;-74
2022/06/07 03:40:42;;;;;;;;;;;;;;;;;;5081190;28;19916;-75
2022/06/07 03:43:22;;;;;;;;;;;;;;;;;;5081023;28;19922;-74
2022/06/07 03:46:08;;;;;;;;;;;;;;;;;;5078532;28;19912;-74
2022/06/07 03:48:55;;;;;;;;;;;;;;;;;;5081130;28;19928;-73
2022/06/07 03:51:41;;;;;;;;;;;;;;;;;;5083823;28;19920;-74
2022/06/07 03:54:28;;;;;;;;;;;;;;;;;;5081509;28;19919;-74
2022/06/07 03:57:15;;;;;;;;;;;;;;;;;;5079360;28;19923;-75
2022/06/07 04:00:01;;;;;;;;;;;;;;;;;;5068872;28;19916;-74
2022/06/07 04:02:48;;;;;;;;;;;;;;;;;;5086238;28;20959;-74
2022/06/07 04:05:35;;;;;;;;;;;;;;;;;;5079737;28;19912;-74
2022/06/07 04:08:21;;;;;;;;;;;;;;;;;;5076900;28;19955;-74
2022/06/07 04:11:08;;;;;;;;;;;;;;;;;;5081638;28;19916;-74
2022/06/07 04:13:54;;;;;;;;;;;;;;;;;;5079463;28;19939;-72
2022/06/07 04:16:41;;;;;;;;;;;;;;;;;;5073662;28;20380;-74
2022/06/07 04:19:28;;;;;;;;;;;;;;;;;;5066527;28;19919;-73
2022/06/07 04:22:14;;;;;;;;;;;;;;;;;;5075038;28;19918;-75
2022/06/07 04:25:01;;;;;;;;;;;;;;;;;;5079964;28;19916;-75
2022/06/07 04:27:47;;;;;;;;;;;;;;;;;;5071564;28;19921;-75
2022/06/07 04:30:36;;;;;;;;;;;;;;;;;;5077002;28;20564;-75
2022/06/07 04:33:22;;;;;;;;;;;;;;;;;;5090693;28;20599;-74
2022/06/07 04:36:09;;;;;;;;;;;;;;;;;;5085755;28;19916;-74
2022/06/07 04:38:57;;;;;;;;;;;;;;;;;;5080500;28;20595;-74
2022/06/07 04:41:43;;;;;;;;;;;;;;;;;;5090552;28;20456;-74
2022/06/07 04:44:30;;;;;;;;;;;;;;;;;;5087214;28;19909;-74
2022/06/07 04:47:16;;;;;;;;;;;;;;;;;;5081681;28;19920;-75
2022/06/07 04:50:03;;;;;;;;;;;;;;;;;;5098907;28;19935;-75
2022/06/07 04:52:49;;;;;;;;;;;;;;;;;;5081561;28;19909;-75
2022/06/07 04:55:36;;;;;;;;;;;;;;;;;;5095057;28;19919;-75
2022/06/07 04:58:22;;;;;;;;;;;;;;;;;;5080451;28;20413;-76
2022/06/07 05:01:09;;;;;;;;;;;;;;;;;;5079093;28;19919;-75
2022/06/07 05:03:55;;;;;;;;;;;;;;;;;;5093656;28;20450;-76
2022/06/07 05:06:42;;;;;;;;;;;;;;;;;;5090598;28;19908;-76
2022/06/07 05:09:29;;;;;;;;;;;;;;;;;;5069484;28;19915;-74
2022/06/07 05:12:15;;;;;;;;;;;;;;;;;;5100711;28;19908;-74
2022/06/07 05:15:01;;;;;;;;;;;;;;;;;;5091934;28;19912;-75
2022/06/07 05:17:48;;;;;;;;;;;;;;;;;;5082652;28;20293;-74
2022/06/07 05:20:35;;;;;;;;;;;;;;;;;;5080807;28;20404;-74
2022/06/07 05:23:21;;;;;;;;;;;;;;;;;;5070560;28;19923;-74
2022/06/07 05:26:07;;;;;;;;;;;;;;;;;;5080871;28;19914;-74
2022/06/07 05:28:54;;;;;;;;;;;;;;;;;;5076306;28;19923;-75
2022/06/07 05:31:40;;;;;;;;;;;;;;;;;;5085628;28;19915;-76
2022/06/07 05:34:27;;;;;;;;;;;;;;;;;;5086685;28;19912;-75
2022/06/07 05:37:13;;;;;;;;;;;;;;;;;;5073184;28;19934;-73
2022/06/07 05:40:00;;;;;;;;;;;;;;;;;;5072785;28;19914;-74
2022/06/07 05:42:46;;;;;;;;;;;;;;;;;;5087578;28;19914;-73
2022/06/07 05:45:33;;;;;;;;;;;;;;;;;;5075337;28;19916;-74
2022/06/07 05:48:19;;;;;;;;;;;;;;;;;;5082148;28;19917;-74
2022/06/07 05:51:06;;;;;;;;;;;;;;;;;;5083673;28;19908;-75
2022/06/07 05:53:52;;;;;;;;;;;;;;;;;;5079961;28;20012;-74
2022/06/07 05:56:39;;;;;;;;;;;;;;;;;;5084135;28;19909;-74
2022/06/07 05:59:25;;;;;;;;;;;;;;;;;;5083155;28;19909;-75
2022/06/07 06:02:12;;;;;;;;;;;;;;;;;;5071506;28;20402;-77
2022/06/07 06:04:59;;;;;;;;;;;;;;;;;;5082530;28;20292;-75
2022/06/07 06:10:51;;;;;;;;;;;;;;;;;;5080770;28;19912;-74
2022/06/07 06:13:37;;;;;;;;;;;;;;;;;;5091000;28;19917;-74
2022/06/07 06:16:24;;;;;;;;;;;;;;;;;;5089984;28;19946;-74
2022/06/07 06:19:10;;;;;;;;;;;;;;;;;;5075939;28;19908;-74
2022/06/07 06:21:57;;;;;;;;;;;;;;;;;;5085830;28;19919;-75
2022/06/07 06:24:43;;;;;;;;;;;;;;;;;;5082564;28;19935;-76
2022/06/07 06:27:30;;;;;;;;;;;;;;;;;;5088779;28;19946;-74
2022/06/07 06:30:16;;;;;;;;;;;;;;;;;;5077463;28;20288;-74
2022/06/07 06:33:03;;;;;;;;;;;;;;;;;;5083176;28;20423;-75
2022/06/07 06:35:51;;;;;;;;;;;;;;;;;;5079328;28;19912;-74
2022/06/07 06:38:37;;;;;;;;;;;;;;;;;;5079655;28;19912;-74
2022/06/07 06:41:23;;;;;;;;;;;;;;;;;;5087126;28;19918;-74
2022/06/07 06:44:10;;;;;;;;;;;;;;;;;;5082845;28;19913;-73
2022/06/07 06:46:57;;;;;;;;;;;;;;;;;;5081002;28;19916;-76
2022/06/07 06:49:44;;;;;;;;;;;;;;;;;;5099763;28;19908;-76
2022/06/07 06:52:32;;;;;;;;;;;;;;;;;;5089486;28;19912;-76
2022/06/07 06:55:18;;;;;;;;;;;;;;;;;;5086790;28;20277;-76
2022/06/07 06:58:04;;;;;;;;;;;;;;;;;;5104295;28;19926;-76
2022/06/07 07:00:54;;;;;;;;;;;;;;;;;;5113318;28;19916;-75
2022/06/07 07:03:40;;;;;;;;;;;;;;;;;;5074336;28;20367;-75
2022/06/07 07:06:27;;;;;;;;;;;;;;;;;;5082546;28;19912;-79
2022/06/07 07:09:13;;;;;;;;;;;;;;;;;;5092748;28;19931;-76
2022/06/07 07:12:00;;;;;;;;;;;;;;;;;;5095341;28;19913;-78
2022/06/07 07:14:48;;;;;;;;;;;;;;;;;;5085129;28;19927;-77
2022/06/07 07:17:35;;;;;;;;;;;;;;;;;;5083562;28;19921;-77
2022/06/07 07:20:21;;;;;;;;;;;;;;;;;;5073148;28;19923;-77
2022/06/07 07:23:08;;;;;;;;;;;;;;;;;;5069628;28;19947;-76
2022/06/07 07:25:55;;;;;;;;;;;;;;;;;;5074878;28;19909;-76
2022/06/07 07:28:41;;;;;;;;;;;;;;;;;;5082495;28;19935;-77
2022/06/07 07:31:30;;;;;;;;;;;;;;;;;;5074284;28;19913;-76
2022/06/07 07:34:17;;;;;;;;;;;;;;;;;;5080323;28;19919;-76
2022/06/07 07:37:03;;;;;;;;;;;;;;;;;;5089379;28;19928;-75
2022/06/07 07:39:50;;;;;;;;;;;;;;;;;;5090910;28;19936;-76
2022/06/07 07:42:36;;;;;;;;;;;;;;;;;;5072222;28;19913;-75
2022/06/07 07:45:23;;;;;;;;;;;;;;;;;;5083453;28;20469;-77
2022/06/07 07:48:09;;;;;;;;;;;;;;;;;;5087698;28;19927;-77
2022/06/07 07:50:56;;;;;;;;;;;;;;;;;;5082103;28;19921;-75
2022/06/07 07:53:42;;;;;;;;;;;;;;;;;;5081610;28;20000;-76
2022/06/07 07:56:29;;;;;;;;;;;;;;;;;;5081749;28;19914;-76
2022/06/07 07:59:15;;;;;;;;;;;;;;;;;;5056716;28;19915;-75
2022/06/07 08:02:02;;;;;;;;;;;;;;;;;;5078160;28;20496;-77
2022/06/07 08:04:49;;;;;;;;;;;;;;;;;;5083684;28;19908;-76
2022/06/07 08:07:35;;;;;;;;;;;;;;;;;;5074224;28;19920;-76
2022/06/07 08:10:22;;;;;;;;;;;;;;;;;;5064994;28;20213;-74
2022/06/07 08:13:09;;;;;;;;;;;;;;;;;;5071914;28;19931;-75
2022/06/07 08:15:58;;;;;;;;;;;;;;;;;;5069734;28;19912;-76
2022/06/07 08:18:45;;;;;;;;;;;;;;;;;;5071674;28;20552;-78
2022/06/07 08:21:32;;;;;;;;;;;;;;;;;;5075749;28;19912;-77
2022/06/07 08:24:18;;;;;;;;;;;;;;;;;;5088928;28;20469;-76
2022/06/07 08:27:05;;;;;;;;;;;;;;;;;;5073041;28;19935;-77
2022/06/07 08:29:51;;;;;;;;;;;;;;;;;;5083451;28;19923;-75
2022/06/07 08:32:38;;;;;;;;;;;;;;;;;;5071317;28;19909;-75
2022/06/07 08:38:29;;;;;;;;;;;;;;;;;;5070489;28;19921;-76
2022/06/07 08:41:16;;;;;;;;;;;;;;;;;;5079008;28;19912;-76
2022/06/07 08:44:02;;;;;;;;;;;;;;;;;;5077893;28;19924;-76
2022/06/07 08:46:49;;;;;;;;;;;;;;;;;;5074806;28;19908;-80
2022/06/07 08:49:35;;;;;;;;;;;;;;;;;;5083581;28;19932;-76
2022/06/07 08:52:22;;;;;;;;;;;;;;;;;;5072169;28;19913;-77
2022/06/07 08:55:11;;;;;;;;;;;;;;;;;;5084399;28;19908;-75
2022/06/07 08:58:13;;;;;;;;;;;;;;;;;;;;;
2022/06/07 09:01:03;;;;;;;;;;;;;;;;;;5074660;28;19917;-77
2022/06/07 09:03:50;;;;;;;;;;;;;;;;;;5060934;28;19915;-76
2022/06/07 09:06:36;;;;;;;;;;;;;;;;;;5070651;28;19923;-75
2022/06/07 09:09:23;;;;;;;;;;;;;;;;;;5073290;28;20172;-76
2022/06/07 09:12:09;;;;;;;;;;;;;;;;;;5075362;28;19912;-75
2022/06/07 09:14:56;;;;;;;;;;;;;;;;;;5083482;28;19916;-76
2022/06/07 09:17:42;;;;;;;;;;;;;;;;;;5070535;28;19923;-77
2022/06/07 09:20:29;;;;;;;;;;;;;;;;;;5087045;28;19908;-77
2022/06/07 09:23:15;;;;;;;;;;;;;;;;;;5080845;28;20491;-77
2022/06/07 09:26:02;;;;;;;;;;;;;;;;;;5069115;28;20280;-76
2022/06/07 09:28:48;;;;;;;;;;;;;;;;;;5085925;28;19939;-75
2022/06/07 09:31:35;;;;;;;;;;;;;;;;;;5074767;28;20265;-75
2022/06/07 09:34:21;;;;;;;;;;;;;;;;;;5069576;28;19912;-76
2022/06/07 09:37:08;;;;;;;;;;;;;;;;;;5077606;28;19928;-76
2022/06/07 09:39:54;;;;;;;;;;;;;;;;;;5068534;28;19912;-77
2022/06/07 09:42:41;;;;;;;;;;;;;;;;;;5076352;28;19927;-76
2022/06/07 09:45:27;;;;;;;;;;;;;;;;;;5069387;28;19916;-75
2022/06/07 09:48:14;;;;;;;;;;;;;;;;;;5077015;28;19920;-76
2022/06/07 09:51:00;;;;;;;;;;;;;;;;;;5079125;28;19916;-77
2022/06/07 09:53:47;;;;;;;;;;;;;;;;;;5083331;28;19924;-76
2022/06/07 09:56:34;;;;;;;;;;;;;;;;;;5078117;28;19912;-76
2022/06/07 09:59:20;;;;;;;;;;;;;;;;;;5057312;28;20275;-76
2022/06/07 10:02:07;;;;;;;;;;;;;;;;;;5076593;28;19942;-76
2022/06/07 10:04:53;;;;;;;;;;;;;;;;;;5077373;28;20346;-76
2022/06/07 10:07:40;;;;;;;;;;;;;;;;;;5088480;28;19927;-76
2022/06/07 10:10:26;;;;;;;;;;;;;;;;;;5072696;28;19946;-77
2022/06/07 10:13:13;;;;;;;;;;;;;;;;;;5072399;28;19908;-77
2022/06/07 10:15:59;;;;;;;;;;;;;;;;;;5077785;28;19908;-77
2022/06/07 10:18:46;;;;;;;;;;;;;;;;;;5076897;28;19912;-75
2022/06/07 10:21:33;;;;;;;;;;;;;;;;;;5063799;28;19918;-75
2022/06/07 10:24:19;;;;;;;;;;;;;;;;;;5078580;28;19912;-75
2022/06/07 10:27:05;;;;;;;;;;;;;;;;;;5071366;28;19919;-77
2022/06/07 10:29:52;;;;;;;;;;;;;;;;;;5071645;28;19920;-75
2022/06/07 10:32:38;;;;;;;;;;;;;;;;;;5072560;28;19927;-76
2022/06/07 10:35:25;;;;;;;;;;;;;;;;;;5071896;28;19915;-73
2022/06/07 10:38:11;;;;;;;;;;;;;;;;;;5079068;28;20404;-76
2022/06/07 10:40:58;;;;;;;;;;;;;;;;;;5077298;28;19918;-76
2022/06/07 10:43:44;;;;;;;;;;;;;;;;;;5073356;28;19909;-76
2022/06/07 10:46:34;;;;;;;;;;;;;;;;;;5054705;28;19912;-76
2022/06/07 10:49:20;;;;;;;;;;;;;;;;;;5069110;28;19927;-76
2022/06/07 10:52:22;;;;;;;;;;;;;;;;;;5067884;28;19916;-76
2022/06/07 10:55:08;;;;;;;;;;;;;;;;;;5081348;28;19908;-77
2022/06/07 10:57:55;;;;;;;;;;;;;;;;;;5079369;28;19916;-76
2022/06/07 11:00:41;;;;;;;;;;;;;;;;;;5068404;28;19917;-77
2022/06/07 11:03:28;;;;;;;;;;;;;;;;;;5067202;28;19908;-77
2022/06/07 11:09:21;;;;;;;;;;;;;;;;;;5084441;28;19917;-77
2022/06/07 11:12:07;;;;;;;;;;;;;;;;;;5063295;28;19908;-76
2022/06/07 11:14:54;;;;;;;;;;;;;;;;;;5069293;28;20456;-76
2022/06/07 11:17:41;;;;;;;;;;;;;;;;;;5076337;28;19923;-75
2022/06/07 11:20:27;;;;;;;;;;;;;;;;;;5077787;28;19908;-76
2022/06/07 11:23:14;;;;;;;;;;;;;;;;;;5077117;28;19924;-77
2022/06/07 11:26:00;;;;;;;;;;;;;;;;;;5077282;28;20400;-76
2022/06/07 11:28:47;;;;;;;;;;;;;;;;;;5074418;28;19934;-76
2022/06/07 11:31:33;;;;;;;;;;;;;;;;;;5075412;28;19916;-77
2022/06/07 11:34:21;;;;;;;;;;;;;;;;;;5076383;28;19917;-77
2022/06/07 11:37:08;;;;;;;;;;;;;;;;;;5078375;28;20390;-76
2022/06/07 11:39:54;;;;;;;;;;;;;;;;;;5073014;28;19916;-77
2022/06/07 11:42:41;;;;;;;;;;;;;;;;;;5081832;28;19920;-77
2022/06/07 11:45:27;;;;;;;;;;;;;;;;;;5073118;28;19923;-77
2022/06/07 11:48:14;;;;;;;;;;;;;;;;;;5078730;28;19935;-77
2022/06/07 11:51:00;;;;;;;;;;;;;;;;;;5072812;28;19932;-78
2022/06/07 11:53:47;;;;;;;;;;;;;;;;;;5082401;28;19912;-75
2022/06/07 11:56:33;;;;;;;;;;;;;;;;;;5078833;28;19909;-76
2022/06/07 11:59:20;;;;;;;;;;;;;;;;;;5087628;28;19914;-76
2022/06/07 12:02:07;;;;;;;;;;;;;;;;;;5076634;28;19913;-76
2022/06/07 12:04:54;;;;;;;;;;;;;;;;;;5077729;28;19916;-76
2022/06/07 12:07:40;;;;;;;;;;;;;;;;;;5089832;28;20378;-76
2022/06/07 12:10:27;;;;;;;;;;;;;;;;;;5081119;28;20402;-76
2022/06/07 12:13:13;;;;;;;;;;;;;;;;;;5076092;28;19931;-76
2022/06/07 12:16:00;;;;;;;;;;;;;;;;;;5079814;28;20378;-76
2022/06/07 12:18:47;;;;;;;;;;;;;;;;;;5072895;28;19915;-76
2022/06/07 12:21:33;;;;;;;;;;;;;;;;;;5091707;28;19945;-76
2022/06/07 12:24:20;;;;;;;;;;;;;;;;;;5086604;28;19917;-76
2022/06/07 12:27:07;;;;;;;;;;;;;;;;;;5088293;28;19908;-76
2022/06/07 12:29:54;;;;;;;;;;;;;;;;;;5084019;28;19920;-76
2022/06/07 12:32:43;;;;;;;;;;;;;;;;;;5076523;28;19912;-76
2022/06/07 12:35:30;;;;;;;;;;;;;;;;;;5061489;28;19916;-76
2022/06/07 12:38:16;;;;;;;;;;;;;;;;;;5088321;28;19924;-76
2022/06/07 12:41:03;;;;;;;;;;;;;;;;;;5087628;28;19919;-75
2022/06/07 12:43:51;;;;;;;;;;;;;;;;;;5079196;28;19919;-76
2022/06/07 12:46:37;;;;;;;;;;;;;;;;;;5079764;28;20413;-76
2022/06/07 12:49:24;;;;;;;;;;;;;;;;;;5075497;28;19920;-75
2022/06/07 12:52:10;;;;;;;;;;;;;;;;;;5075507;28;19923;-76
2022/06/07 12:55:00;;;;;;;;;;;;;;;;;;5071105;28;19921;-76
2022/06/07 12:57:46;;;;;;;;;;;;;;;;;;5090057;28;19924;-77
2022/06/07 13:00:34;;;;;;;;;;;;;;;;;;5076253;28;19919;-77
2022/06/07 13:03:21;;;;;;;;;;;;;;;;;;5075726;28;19922;-76
2022/06/07 13:06:08;;;;;;;;;;;;;;;;;;5076275;28;19918;-75
2022/06/07 13:08:54;;;;;;;;;;;;;;;;;;5076039;28;19920;-76
2022/06/07 13:11:41;;;;;;;;;;;;;;;;;;5064340;28;19919;-78
2022/06/07 13:14:27;;;;;;;;;;;;;;;;;;5077210;28;20303;-77
2022/06/07 13:17:16;;;;;;;;;;;;;;;;;;5077833;28;20717;-78
2022/06/07 13:20:03;;;;;;;;;;;;;;;;;;5083592;28;19913;-77
2022/06/07 13:22:49;;;;;;;;;;;;;;;;;;5073489;28;19935;-77
2022/06/07 13:25:36;;;;;;;;;;;;;;;;;;5079111;28;19909;-77
2022/06/07 13:28:22;;;;;;;;;;;;;;;;;;5076503;28;19916;-76
2022/06/07 13:31:09;;;;;;;;;;;;;;;;;;5072753;28;19915;-75
2022/06/07 13:33:55;;;;;;;;;;;;;;;;;;5063620;28;19916;-75
2022/06/07 13:36:42;;;;;;;;;;;;;;;;;;5071747;28;19924;-76
2022/06/07 13:39:28;;;;;;;;;;;;;;;;;;5079257;28;19912;-77
2022/06/07 13:42:15;;;;;;;;;;;;;;;;;;5074603;28;19913;-77
2022/06/07 13:45:01;;;;;;;;;;;;;;;;;;5078812;28;20296;-77
2022/06/07 13:47:48;;;;;;;;;;;;;;;;;;5074999;28;19919;-76
2022/06/07 13:53:39;;;;;;;;;;;;;;;;;;5082351;28;19910;-76
2022/06/07 13:56:26;;;;;;;;;;;;;;;;;;5058024;28;19931;-76
2022/06/07 13:59:15;;;;;;;;;;;;;;;;;;5077169;28;19912;-77
2022/06/07 14:02:02;;;;;;;;;;;;;;;;;;5071187;28;19912;-77
2022/06/07 14:04:48;;;;;;;;;;;;;;;;;;5071488;28;19918;-76
2022/06/07 14:07:35;;;;;;;;;;;;;;;;;;5079732;28;19916;-76
2022/06/07 14:10:21;;;;;;;;;;;;;;;;;;5081002;28;19920;-76
2022/06/07 14:13:08;;;;;;;;;;;;;;;;;;5070226;28;19912;-75
2022/06/07 14:15:55;;;;;;;;;;;;;;;;;;5069229;28;19995;-77
2022/06/07 14:18:42;;;;;;;;;;;;;;;;;;5075579;28;19919;-77
2022/06/07 14:21:28;;;;;;;;;;;;;;;;;;5086905;28;19916;-76
2022/06/07 14:24:15;;;;;;;;;;;;;;;;;;5076074;28;19913;-76
2022/06/07 14:27:02;;;;;;;;;;;;;;;;;;5073956;28;19920;-76
2022/06/07 14:29:50;;;;;;;;;;;;;;;;;;5078940;28;19924;-77
2022/06/07 14:32:37;;;;;;;;;;;;;;;;;;5079980;28;19920;-76
2022/06/07 14:35:23;;;;;;;;;;;;;;;;;;5073956;28;19919;-77
2022/06/07 14:38:10;;;;;;;;;;;;;;;;;;5074543;28;19921;-77
2022/06/07 14:40:56;;;;;;;;;;;;;;;;;;5071438;28;20027;-77
2022/06/07 14:43:43;;;;;;;;;;;;;;;;;;5074219;28;19912;-77
2022/06/07 14:46:32;;;;;;;;;;;;;;;;;;5075013;28;19916;-78
2022/06/07 14:49:19;;;;;;;;;;;;;;;;;;5078440;28;20297;-77
2022/06/07 14:52:08;;;;;;;;;;;;;;;;;;5075129;28;20450;-77
2022/06/07 14:54:58;;;;;;;;;;;;;;;;;;5077524;28;20291;-77
2022/06/07 14:57:47;;;;;;;;;;;;;;;;;;5078821;28;19916;-77
2022/06/07 15:00:33;;;;;;;;;;;;;;;;;;5076897;28;19920;-77
2022/06/07 15:03:24;;;;;;;;;;;;;;;;;;5078566;28;19912;-78
2022/06/07 15:06:11;;;;;;;;;;;;;;;;;;5059342;28;19919;-77
2022/06/07 15:08:57;;;;;;;;;;;;;;;;;;5074625;28;19924;-77
2022/06/07 15:11:44;;;;;;;;;;;;;;;;;;5084763;28;19942;-77
2022/06/07 15:14:31;;;;;;;;;;;;;;;;;;5060204;28;19919;-78
2022/06/07 15:17:17;;;;;;;;;;;;;;;;;;5073858;28;20373;-77
2022/06/07 15:20:04;;;;;;;;;;;;;;;;;;5075663;28;19916;-77
2022/06/07 15:22:50;;;;;;;;;;;;;;;;;;5075497;28;20432;-80
2022/06/07 15:25:37;;;;;;;;;;;;;;;;;;5065411;28;19935;-76
2022/06/07 15:28:23;;;;;;;;;;;;;;;;;;5075653;28;19920;-76
2022/06/07 15:31:10;;;;;;;;;;;;;;;;;;5075228;28;19922;-76
2022/06/07 15:33:59;;;;;;;;;;;;;;;;;;5073200;28;19919;-76
2022/06/07 15:36:45;;;;;;;;;;;;;;;;;;5062130;28;20296;-76
2022/06/07 15:39:33;;;;;;;;;;;;;;;;;;5074741;28;20269;-76
2022/06/07 15:45:25;;;;;;;;;;;;;;;;;;5075593;28;20493;-77
2022/06/07 15:48:11;;;;;;;;;;;;;;;;;;5074104;28;19924;-77
2022/06/07 15:50:59;;;;;;;;;;;;;;;;;;5079887;28;19919;-77
2022/06/07 15:53:47;;;;;;;;;;;;;;;;;;5075462;28;19916;-77
2022/06/07 15:56:34;;;;;;;;;;;;;;;;;;5073011;28;19919;-77
2022/06/07 15:59:21;;;;;;;;;;;;;;;;;;5078409;28;19916;-79
2022/06/07 16:02:09;;;;;;;;;;;;;;;;;;5078049;28;19908;-77
2022/06/07 16:04:56;;;;;;;;;;;;;;;;;;5081885;28;19920;-76
2022/06/07 16:07:42;;;;;;;;;;;;;;;;;;5076143;28;19912;-78
2022/06/07 16:10:29;;;;;;;;;;;;;;;;;;5074522;28;19990;-78
2022/06/07 16:13:15;;;;;;;;;;;;;;;;;;5078672;28;20636;-78
2022/06/07 16:16:02;;;;;;;;;;;;;;;;;;5076190;28;19916;-78
2022/06/07 16:18:48;;;;;;;;;;;;;;;;;;5056868;28;19937;-78
2022/06/07 16:21:35;;;;;;;;;;;;;;;;;;5072888;28;21921;-77
2022/06/07 16:24:21;;;;;;;;;;;;;;;;;;5061405;28;19922;-78
2022/06/07 16:33:18;;;;;;;;;;;;;;;;;;5082989;28;20447;-76
2022/06/07 16:33:19;;;;;;;;;;;;;;;;;;5070746;28;19908;-78
2022/06/07 16:36:06;;;;;;;;;;;;;;;;;;5078730;28;19917;-77
2022/06/07 16:38:52;;;;;;;;;;;;;;;;;;5075326;28;19909;-77
2022/06/07 16:41:38;;;;;;;;;;;;;;;;;;5074977;28;19917;-77
2022/06/07 16:44:25;;;;;;;;;;;;;;;;;;5076234;28;20525;-77
2022/06/07 16:47:14;;;;;;;;;;;;;;;;;;5059089;28;20376;-77
2022/06/07 16:50:01;;;;;;;;;;;;;;;;;;5073858;28;19917;-77
2022/06/07 16:52:48;;;;;;;;;;;;;;;;;;5073989;28;19920;-77
2022/06/07 16:55:34;;;;;;;;;;;;;;;;;;5056193;28;19913;-77
2022/06/07 16:58:21;;;;;;;;;;;;;;;;;;5076876;28;20380;-78
2022/06/07 17:01:07;;;;;;;;;;;;;;;;;;5077500;28;19919;-78
2022/06/07 17:03:54;;;;;;;;;;;;;;;;;;5074961;28;19920;-77
2022/06/07 17:06:40;;;;;;;;;;;;;;;;;;5076129;28;19923;-77
2022/06/07 17:09:27;;;;;;;;;;;;;;;;;;5081884;28;20370;-75
2022/06/07 17:12:16;;;;;;;;;;;;;;;;;;5062139;28;19908;-77
2022/06/07 17:15:02;;;;;;;;;;;;;;;;;;5075882;28;19909;-76
2022/06/07 17:17:49;;;;;;;;;;;;;;;;;;5071809;28;20287;-78
2022/06/07 17:20:35;;;;;;;;;;;;;;;;;;5073932;28;19927;-78
2022/06/07 17:23:22;;;;;;;;;;;;;;;;;;5062060;28;19923;-77
2022/06/07 17:26:08;;;;;;;;;;;;;;;;;;5075094;28;20356;-78
2022/06/07 17:28:55;;;;;;;;;;;;;;;;;;5073635;28;19916;-77
2022/06/07 17:31:41;;;;;;;;;;;;;;;;;;5073754;28;19920;-77
2022/06/07 17:34:28;;;;;;;;;;;;;;;;;;5060049;28;19913;-77
2022/06/07 17:37:17;;;;;;;;;;;;;;;;;;5074878;28;19939;-76
2022/06/07 17:40:03;;;;;;;;;;;;;;;;;;5083202;28;19923;-78
2022/06/07 17:42:50;;;;;;;;;;;;;;;;;;5067254;28;19909;-77
2022/06/07 17:45:36;;;;;;;;;;;;;;;;;;5069261;28;19913;-77
2022/06/07 17:48:23;;;;;;;;;;;;;;;;;;5069363;28;19927;-77
2022/06/07 17:51:09;;;;;;;;;;;;;;;;;;5057243;28;19909;-77
2022/06/07 17:53:56;;;;;;;;;;;;;;;;;;5083741;28;19918;-78
2022/06/07 17:56:42;;;;;;;;;;;;;;;;;;5071777;28;19916;-77
2022/06/07 17:59:28;;;;;;;;;;;;;;;;;;5065828;28;19923;-77
2022/06/07 18:02:15;;;;;;;;;;;;;;;;;;5072404;28;19908;-77
2022/06/07 18:05:04;;;;;;;;;;;;;;;;;;5070822;28;19923;-77
2022/06/07 18:07:51;;;;;;;;;;;;;;;;;;5074180;28;19916;-77
2022/06/07 18:10:38;;;;;;;;;;;;;;;;;;5078928;28;19941;-77
2022/06/07 18:13:25;;;;;;;;;;;;;;;;;;5069958;28;19912;-77
2022/06/07 18:16:12;;;;;;;;;;;;;;;;;;5069780;28;19912;-76
2022/06/07 18:18:58;;;;;;;;;;;;;;;;;;5076594;28;19908;-76
2022/06/07 18:21:45;;;;;;;;;;;;;;;;;;5082867;28;20370;-77
2022/06/07 18:24:31;;;;;;;;;;;;;;;;;;5069980;28;19919;-77
2022/06/07 18:27:18;;;;;;;;;;;;;;;;;;5061934;28;19909;-77
2022/06/07 18:30:04;;;;;;;;;;;;;;;;;;5076289;28;19920;-78
2022/06/07 18:32:51;;;;;;;;;;;;;;;;;;5079249;28;19917;-76
2022/06/07 18:35:38;;;;;;;;;;;;;;;;;;5096056;28;19908;-77
2022/06/07 18:38:27;;;;;;;;;;;;;;;;;;5074038;28;19919;-77
2022/06/07 18:41:13;;;;;;;;;;;;;;;;;;5073402;28;19915;-77
2022/06/07 18:44:03;;;;;;;;;;;;;;;;;;5075153;28;19915;-78
2022/06/07 18:46:51;;;;;;;;;;;;;;;;;;5071776;28;19909;-77
2022/06/07 18:49:38;;;;;;;;;;;;;;;;;;5081583;28;19925;-77
2022/06/07 18:52:24;;;;;;;;;;;;;;;;;;5076661;28;19909;-78
2022/06/07 18:55:11;;;;;;;;;;;;;;;;;;5075491;28;20257;-77
2022/06/07 18:57:57;;;;;;;;;;;;;;;;;;5074744;28;19912;-77
2022/06/07 19:00:43;;;;;;;;;;;;;;;;;;5080621;28;20292;-76
2022/06/07 19:03:30;;;;;;;;;;;;;;;;;;5080906;28;19938;-77
2022/06/07 19:06:17;;;;;;;;;;;;;;;;;;5086849;28;20368;-77
2022/06/07 19:09:04;;;;;;;;;;;;;;;;;;5080304;28;19916;-76
2022/06/07 19:11:51;;;;;;;;;;;;;;;;;;5079393;28;19908;-77
2022/06/07 19:14:38;;;;;;;;;;;;;;;;;;5076012;28;19916;-77
2022/06/07 19:17:28;;;;;;;;;;;;;;;;;;5071324;28;20280;-77
2022/06/07 19:20:14;;;;;;;;;;;;;;;;;;5058071;28;19912;-75
2022/06/07 19:23:01;;;;;;;;;;;;;;;;;;5075667;28;20369;-78
2022/06/07 19:25:47;;;;;;;;;;;;;;;;;;5071793;28;19918;-78